createdAt,value
2022-09-28T00:00:29.496Z,993.20
2022-09-28T00:01:29.529Z,993.15
2022-09-28T00:02:29.614Z,993.14
2022-09-28T00:03:29.492Z,993.12
2022-09-28T00:04:29.501Z,993.13
2022-09-28T00:05:29.490Z,993.13
2022-09-28T00:06:29.488Z,993.12
2022-09-28T00:07:29.486Z,993.13
2022-09-28T00:08:29.480Z,993.18
2022-09-28T00:09:29.480Z,993.14
2022-09-28T00:10:29.506Z,993.15
2022-09-28T00:11:29.479Z,993.17
2022-09-28T00:12:29.478Z,993.16
2022-09-28T00:13:29.481Z,993.18
2022-09-28T00:14:29.473Z,993.14
2022-09-28T00:15:29.471Z,993.13
2022-09-28T00:16:29.540Z,993.16
2022-09-28T00:17:29.470Z,993.18
2022-09-28T00:18:29.471Z,993.20
2022-09-28T00:19:29.462Z,993.18
2022-09-28T00:20:29.470Z,993.19
2022-09-28T00:21:29.464Z,993.20
2022-09-28T00:22:29.462Z,993.22
2022-09-28T00:23:29.458Z,993.21
2022-09-28T00:24:29.459Z,993.20
2022-09-28T00:25:29.458Z,993.21
2022-09-28T00:26:29.485Z,993.21
2022-09-28T00:27:29.457Z,993.17
2022-09-28T00:28:29.458Z,993.18
2022-09-28T00:29:29.453Z,993.19
2022-09-28T00:30:29.451Z,993.21
2022-09-28T00:31:29.549Z,993.11
2022-09-28T00:32:29.447Z,993.21
2022-09-28T00:33:29.449Z,993.16
2022-09-28T00:34:29.447Z,993.14
2022-09-28T00:35:29.443Z,993.15
2022-09-28T00:36:29.444Z,993.12
2022-09-28T00:37:29.439Z,993.13
2022-09-28T00:38:29.442Z,993.12
2022-09-28T00:39:29.438Z,993.12
2022-09-28T00:40:29.457Z,993.15
2022-09-28T00:41:29.439Z,993.12
2022-09-28T00:42:29.456Z,993.07
2022-09-28T00:43:29.432Z,993.06
2022-09-28T00:44:29.431Z,993.06
2022-09-28T00:45:29.438Z,993.06
2022-09-28T00:46:29.429Z,993.05
2022-09-28T00:47:29.478Z,993.01
2022-09-28T00:48:29.426Z,993.06
2022-09-28T00:49:29.426Z,993.00
2022-09-28T00:50:29.422Z,993.00
2022-09-28T00:51:29.420Z,993.03
2022-09-28T00:52:29.421Z,993.03
2022-09-28T00:53:29.419Z,993.00
2022-09-28T00:54:29.419Z,993.02
2022-09-28T00:55:29.411Z,993.02
2022-09-28T00:56:29.416Z,993.02
2022-09-28T00:57:29.412Z,993.01
2022-09-28T00:58:29.436Z,993.02
2022-09-28T00:59:29.420Z,992.98
2022-09-28T01:00:29.503Z,993.00
2022-09-28T01:01:29.410Z,992.98
2022-09-28T01:02:29.502Z,993.00
2022-09-28T01:03:29.402Z,993.02
2022-09-28T01:04:30.101Z,993.02
2022-09-28T01:05:29.406Z,993.00
2022-09-28T01:06:29.404Z,993.03
2022-09-28T01:07:29.396Z,993.03
2022-09-28T01:08:29.401Z,993.03
2022-09-28T01:09:29.392Z,993.02
2022-09-28T01:10:29.395Z,993.03
2022-09-28T01:11:29.394Z,993.01
2022-09-28T01:12:29.390Z,992.96
2022-09-28T01:13:29.396Z,993.01
2022-09-28T01:14:29.411Z,993.02
2022-09-28T01:15:29.384Z,993.03
2022-09-28T01:16:29.482Z,993.00
2022-09-28T01:17:29.385Z,992.97
2022-09-28T01:18:29.388Z,992.92
2022-09-28T01:19:29.378Z,992.97
2022-09-28T01:20:29.379Z,992.93
2022-09-28T01:21:29.381Z,992.92
2022-09-28T01:22:29.380Z,992.95
2022-09-28T01:23:29.376Z,992.91
2022-09-28T01:24:29.376Z,992.91
2022-09-28T01:25:29.373Z,992.90
2022-09-28T01:26:29.375Z,992.90
2022-09-28T01:27:29.371Z,992.91
2022-09-28T01:28:29.373Z,992.90
2022-09-28T01:29:29.366Z,992.88
2022-09-28T01:30:29.394Z,992.90
2022-09-28T01:31:29.496Z,992.86
2022-09-28T01:32:29.374Z,992.88
2022-09-28T01:33:29.368Z,992.89
2022-09-28T01:34:29.364Z,992.90
2022-09-28T01:35:29.360Z,992.86
2022-09-28T01:36:29.362Z,992.84
2022-09-28T01:37:29.356Z,992.80
2022-09-28T01:38:29.356Z,992.81
2022-09-28T01:39:29.355Z,992.80
2022-09-28T01:40:29.490Z,992.78
2022-09-28T01:41:29.350Z,992.79
2022-09-28T01:42:29.359Z,992.80
2022-09-28T01:43:29.350Z,992.79
2022-09-28T01:44:29.351Z,992.81
2022-09-28T01:45:29.442Z,992.81
2022-09-28T01:46:29.365Z,992.83
2022-09-28T01:47:29.363Z,992.82
2022-09-28T01:48:29.342Z,992.78
2022-09-28T01:49:29.361Z,992.82
2022-09-28T01:50:29.361Z,992.80
2022-09-28T01:51:29.354Z,992.78
2022-09-28T01:52:29.360Z,992.80
2022-09-28T01:53:29.368Z,992.76
2022-09-28T01:54:29.350Z,992.79
2022-09-28T01:55:29.368Z,992.77
2022-09-28T01:56:29.345Z,992.77
2022-09-28T01:57:29.346Z,992.75
2022-09-28T01:58:29.340Z,992.73
2022-09-28T01:59:29.330Z,992.74
2022-09-28T02:00:29.491Z,992.69
2022-09-28T02:01:29.327Z,992.72
2022-09-28T02:02:29.479Z,992.64
2022-09-28T02:03:29.324Z,992.67
2022-09-28T02:04:29.322Z,992.69
2022-09-28T02:05:29.323Z,992.64
2022-09-28T02:06:29.324Z,992.63
2022-09-28T02:07:29.324Z,992.66
2022-09-28T02:08:29.317Z,992.67
2022-09-28T02:09:33.573Z,992.67
2022-09-28T02:10:29.314Z,992.66
2022-09-28T02:11:29.318Z,992.68
2022-09-28T02:12:29.313Z,992.68
2022-09-28T02:13:29.314Z,992.67
2022-09-28T02:14:29.306Z,992.69
2022-09-28T02:15:29.313Z,992.70
2022-09-28T02:16:29.406Z,992.65
2022-09-28T02:17:29.306Z,992.69
2022-09-28T02:18:29.427Z,992.67
2022-09-28T02:19:29.306Z,992.67
2022-09-28T02:20:29.300Z,992.67
2022-09-28T02:21:29.299Z,992.65
2022-09-28T02:22:29.298Z,992.71
2022-09-28T02:23:29.298Z,992.66
2022-09-28T02:24:29.296Z,992.68
2022-09-28T02:25:29.298Z,992.66
2022-09-28T02:26:29.300Z,992.67
2022-09-28T02:27:29.291Z,992.68
2022-09-28T02:28:29.293Z,992.68
2022-09-28T02:29:29.294Z,992.68
2022-09-28T02:30:29.286Z,992.66
2022-09-28T02:31:29.368Z,992.64
2022-09-28T02:32:29.287Z,992.64
2022-09-28T02:33:29.286Z,992.67
2022-09-28T02:34:29.307Z,992.62
2022-09-28T02:35:29.282Z,992.60
2022-09-28T02:36:29.283Z,992.63
2022-09-28T02:37:29.288Z,992.64
2022-09-28T02:38:29.283Z,992.67
2022-09-28T02:39:29.282Z,992.62
2022-09-28T02:40:29.363Z,992.64
2022-09-28T02:41:29.276Z,992.63
2022-09-28T02:42:29.271Z,992.65
2022-09-28T02:43:29.276Z,992.63
2022-09-28T02:44:29.276Z,992.68
2022-09-28T02:45:29.309Z,992.66
2022-09-28T02:46:29.270Z,992.65
2022-09-28T02:47:29.320Z,992.66
2022-09-28T02:48:43.002Z,992.67
2022-09-28T02:49:29.268Z,992.64
2022-09-28T02:50:29.283Z,992.67
2022-09-28T02:51:29.262Z,992.67
2022-09-28T02:52:29.256Z,992.63
2022-09-28T02:53:29.263Z,992.61
2022-09-28T02:54:29.260Z,992.63
2022-09-28T02:55:29.257Z,992.63
2022-09-28T02:56:29.255Z,992.57
2022-09-28T02:57:29.254Z,992.57
2022-09-28T02:58:29.250Z,992.54
2022-09-28T02:59:29.253Z,992.53
2022-09-28T03:00:29.252Z,992.51
2022-09-28T03:01:29.252Z,992.55
2022-09-28T03:02:29.384Z,992.48
2022-09-28T03:03:29.248Z,992.51
2022-09-28T03:04:29.248Z,992.49
2022-09-28T03:05:29.245Z,992.49
2022-09-28T03:06:29.267Z,992.48
2022-09-28T03:07:29.242Z,992.45
2022-09-28T03:08:29.247Z,992.45
2022-09-28T03:09:29.245Z,992.43
2022-09-28T03:10:29.237Z,992.45
2022-09-28T03:11:29.237Z,992.42
2022-09-28T03:12:29.235Z,992.43
2022-09-28T03:13:29.238Z,992.39
2022-09-28T03:14:29.233Z,992.42
2022-09-28T03:15:29.232Z,992.43
2022-09-28T03:16:29.250Z,992.41
2022-09-28T03:17:29.231Z,992.38
2022-09-28T03:18:29.230Z,992.39
2022-09-28T03:19:29.225Z,992.41
2022-09-28T03:20:29.225Z,992.37
2022-09-28T03:21:29.224Z,992.37
2022-09-28T03:22:29.244Z,992.39
2022-09-28T03:23:29.226Z,992.42
2022-09-28T03:24:29.219Z,992.39
2022-09-28T03:25:29.221Z,992.36
2022-09-28T03:26:29.218Z,992.38
2022-09-28T03:27:29.215Z,992.39
2022-09-28T03:28:29.217Z,992.35
2022-09-28T03:29:29.213Z,992.34
2022-09-28T03:30:29.212Z,992.34
2022-09-28T03:31:29.234Z,992.29
2022-09-28T03:32:29.212Z,992.33
2022-09-28T03:33:29.205Z,992.31
2022-09-28T03:34:29.201Z,992.28
2022-09-28T03:35:29.211Z,992.31
2022-09-28T03:36:29.203Z,992.32
2022-09-28T03:37:29.205Z,992.31
2022-09-28T03:38:29.229Z,992.28
2022-09-28T03:39:29.197Z,992.28
2022-09-28T03:40:29.266Z,992.27
2022-09-28T03:41:29.196Z,992.28
2022-09-28T03:42:29.193Z,992.25
2022-09-28T03:43:29.195Z,992.28
2022-09-28T03:44:29.196Z,992.29
2022-09-28T03:45:29.210Z,992.24
2022-09-28T03:46:29.190Z,992.23
2022-09-28T03:47:29.236Z,992.20
2022-09-28T03:48:32.359Z,992.24
2022-09-28T03:49:29.188Z,992.24
2022-09-28T03:50:29.186Z,992.25
2022-09-28T03:51:29.184Z,992.24
2022-09-28T03:52:29.186Z,992.25
2022-09-28T03:53:29.183Z,992.23
2022-09-28T03:54:29.208Z,992.22
2022-09-28T03:55:29.182Z,992.18
2022-09-28T03:56:29.182Z,992.17
2022-09-28T03:57:29.181Z,992.20
2022-09-28T03:58:29.176Z,992.17
2022-09-28T03:59:29.173Z,992.13
2022-09-28T04:00:29.172Z,992.12
2022-09-28T04:01:29.309Z,992.12
2022-09-28T04:02:29.255Z,992.10
2022-09-28T04:03:29.178Z,992.05
2022-09-28T04:04:29.171Z,992.06
2022-09-28T04:05:29.169Z,992.03
2022-09-28T04:06:29.165Z,992.01
2022-09-28T04:07:31.238Z,991.96
2022-09-28T04:08:29.168Z,992.02
2022-09-28T04:09:29.161Z,991.98
2022-09-28T04:10:29.180Z,991.98
2022-09-28T04:11:38.522Z,992.01
2022-09-28T04:12:29.154Z,991.96
2022-09-28T04:13:29.155Z,991.98
2022-09-28T04:14:29.164Z,991.96
2022-09-28T04:15:29.155Z,991.98
2022-09-28T04:16:29.218Z,992.03
2022-09-28T04:17:29.152Z,991.95
2022-09-28T04:18:29.153Z,992.01
2022-09-28T04:19:29.153Z,992.01
2022-09-28T04:20:29.145Z,991.99
2022-09-28T04:21:29.147Z,992.01
2022-09-28T04:22:29.145Z,992.05
2022-09-28T04:23:29.142Z,992.02
2022-09-28T04:24:29.143Z,992.00
2022-09-28T04:25:29.143Z,991.97
2022-09-28T04:26:29.169Z,991.96
2022-09-28T04:27:29.139Z,991.98
2022-09-28T04:28:29.133Z,991.97
2022-09-28T04:29:29.137Z,991.94
2022-09-28T04:30:29.137Z,991.95
2022-09-28T04:31:29.195Z,991.96
2022-09-28T04:32:29.132Z,991.94
2022-09-28T04:33:29.132Z,991.97
2022-09-28T04:34:34.475Z,991.94
2022-09-28T04:35:29.140Z,991.93
2022-09-28T04:36:29.123Z,991.95
2022-09-28T04:37:29.128Z,991.95
2022-09-28T04:38:48.735Z,991.93
2022-09-28T04:39:29.118Z,991.95
2022-09-28T04:40:29.171Z,992.02
2022-09-28T04:41:29.118Z,991.95
2022-09-28T04:42:29.141Z,991.97
2022-09-28T04:43:29.118Z,991.96
2022-09-28T04:44:29.115Z,991.98
2022-09-28T04:45:29.161Z,991.98
2022-09-28T04:46:29.112Z,991.96
2022-09-28T04:47:29.161Z,991.97
2022-09-28T04:48:29.215Z,991.98
2022-09-28T04:49:29.107Z,991.97
2022-09-28T04:50:29.114Z,991.97
2022-09-28T04:51:29.104Z,992.02
2022-09-28T04:52:29.105Z,992.01
2022-09-28T04:53:29.102Z,991.98
2022-09-28T04:54:29.100Z,991.96
2022-09-28T04:55:29.100Z,992.01
2022-09-28T04:56:29.099Z,992.04
2022-09-28T04:57:29.091Z,992.03
2022-09-28T04:58:29.115Z,992.02
2022-09-28T04:59:29.093Z,992.03
2022-09-28T05:00:29.091Z,992.03
2022-09-28T05:01:29.195Z,992.08
2022-09-28T05:02:29.130Z,992.06
2022-09-28T05:03:29.092Z,992.06
2022-09-28T05:04:29.087Z,992.06
2022-09-28T05:05:29.086Z,992.07
2022-09-28T05:06:29.085Z,992.06
2022-09-28T05:07:29.082Z,992.07
2022-09-28T05:08:29.084Z,992.07
2022-09-28T05:09:29.085Z,992.09
2022-09-28T05:10:29.080Z,992.11
2022-09-28T05:11:29.077Z,992.10
2022-09-28T05:12:29.079Z,992.07
2022-09-28T05:13:29.076Z,992.12
2022-09-28T05:14:29.112Z,992.09
2022-09-28T05:15:29.074Z,992.10
2022-09-28T05:16:29.173Z,992.06
2022-09-28T05:17:29.074Z,992.11
2022-09-28T05:18:29.067Z,992.13
2022-09-28T05:19:29.068Z,992.08
2022-09-28T05:20:29.066Z,992.10
2022-09-28T05:21:29.066Z,992.12
2022-09-28T05:22:29.063Z,992.12
2022-09-28T05:23:29.060Z,992.14
2022-09-28T05:24:29.066Z,992.11
2022-09-28T05:25:29.059Z,992.12
2022-09-28T05:26:29.057Z,992.14
2022-09-28T05:27:29.057Z,992.08
2022-09-28T05:28:29.060Z,992.09
2022-09-28T05:29:32.259Z,992.08
2022-09-28T05:30:29.076Z,992.13
2022-09-28T05:31:29.122Z,992.08
2022-09-28T05:32:29.053Z,992.08
2022-09-28T05:33:29.048Z,992.09
2022-09-28T05:34:29.050Z,992.09
2022-09-28T05:35:29.048Z,992.09
2022-09-28T05:36:29.045Z,992.10
2022-09-28T05:37:29.045Z,992.11
2022-09-28T05:38:29.041Z,992.15
2022-09-28T05:39:29.037Z,992.10
2022-09-28T05:40:29.059Z,992.13
2022-09-28T05:41:29.036Z,992.13
2022-09-28T05:42:29.036Z,992.10
2022-09-28T05:43:29.036Z,992.09
2022-09-28T05:44:29.037Z,992.13
2022-09-28T05:45:29.122Z,992.09
2022-09-28T05:46:29.144Z,992.08
2022-09-28T05:47:29.028Z,992.07
2022-09-28T05:51:01.688Z,992.09
2022-09-28T05:52:01.658Z,992.08
2022-09-28T05:53:01.658Z,992.04
2022-09-28T05:54:05.666Z,992.04
2022-09-28T05:55:01.657Z,992.02
2022-09-28T05:56:01.655Z,992.01
2022-09-28T05:57:01.653Z,992.00
2022-09-28T05:58:01.656Z,991.99
2022-09-28T05:59:01.652Z,992.03
2022-09-28T06:00:01.653Z,991.95
2022-09-28T06:01:01.683Z,992.01
2022-09-28T06:02:01.759Z,991.96
2022-09-28T06:03:04.372Z,991.95
2022-09-28T06:04:01.649Z,991.93
2022-09-28T06:05:01.643Z,991.95
2022-09-28T06:06:01.646Z,991.95
2022-09-28T06:07:01.639Z,991.97
2022-09-28T06:08:01.640Z,991.94
2022-09-28T06:09:01.637Z,991.90
2022-09-28T06:10:01.634Z,991.90
2022-09-28T06:11:01.634Z,991.83
2022-09-28T06:12:01.632Z,991.80
2022-09-28T06:13:01.635Z,991.83
2022-09-28T06:14:01.629Z,991.78
2022-09-28T06:15:01.629Z,991.81
2022-09-28T06:16:01.637Z,991.81
2022-09-28T06:17:01.693Z,991.77
2022-09-28T06:18:01.640Z,991.79
2022-09-28T06:19:01.630Z,991.77
2022-09-28T06:20:01.623Z,991.82
2022-09-28T06:21:01.622Z,991.80
2022-09-28T06:22:01.619Z,991.77
2022-09-28T06:23:01.622Z,991.76
2022-09-28T06:24:01.617Z,991.74
2022-09-28T06:25:01.614Z,991.77
2022-09-28T06:26:01.619Z,991.77
2022-09-28T06:27:01.615Z,991.79
2022-09-28T06:28:01.615Z,991.78
2022-09-28T06:29:01.613Z,991.77
2022-09-28T06:30:01.611Z,991.77
2022-09-28T06:31:01.677Z,991.78
2022-09-28T06:32:01.604Z,991.73
2022-09-28T06:33:01.607Z,991.72
2022-09-28T06:34:01.636Z,991.68
2022-09-28T06:35:01.601Z,991.70
2022-09-28T06:36:01.606Z,991.71
2022-09-28T06:37:01.599Z,991.69
2022-09-28T06:38:01.613Z,991.68
2022-09-28T06:39:01.601Z,991.78
2022-09-28T06:40:01.596Z,991.78
2022-09-28T06:41:01.671Z,991.75
2022-09-28T06:42:01.593Z,991.76
2022-09-28T06:43:01.594Z,991.73
2022-09-28T06:44:01.593Z,991.77
2022-09-28T06:45:01.592Z,991.75
2022-09-28T06:46:01.635Z,991.78
2022-09-28T06:47:01.588Z,991.80
2022-09-28T06:48:01.600Z,991.86
2022-09-28T06:49:01.589Z,991.76
2022-09-28T06:50:01.607Z,991.84
2022-09-28T06:51:01.588Z,991.91
2022-09-28T06:52:01.582Z,991.84
2022-09-28T06:53:01.584Z,991.96
2022-09-28T06:54:01.580Z,991.81
2022-09-28T06:55:01.587Z,991.75
2022-09-28T06:56:01.577Z,991.79
2022-09-28T06:57:01.585Z,991.75
2022-09-28T06:58:01.579Z,991.73
2022-09-28T06:59:01.575Z,991.72
2022-09-28T07:00:01.573Z,991.75
2022-09-28T07:01:01.702Z,991.76
2022-09-28T07:02:01.636Z,991.75
2022-09-28T07:03:01.570Z,991.68
2022-09-28T07:04:01.577Z,991.79
2022-09-28T07:05:01.572Z,991.79
2022-09-28T07:06:01.588Z,991.74
2022-09-28T07:07:01.568Z,991.76
2022-09-28T07:08:01.570Z,991.84
2022-09-28T07:09:17.396Z,991.75
2022-09-28T07:10:01.564Z,991.78
2022-09-28T07:11:01.571Z,991.81
2022-09-28T07:12:01.566Z,991.75
2022-09-28T07:13:01.564Z,991.84
2022-09-28T07:14:01.558Z,991.86
2022-09-28T07:15:01.563Z,991.92
2022-09-28T07:16:01.560Z,992.04
2022-09-28T07:17:13.234Z,992.08
2022-09-28T07:18:03.532Z,992.07
2022-09-28T07:19:01.558Z,992.08
2022-09-28T07:20:12.742Z,992.02
2022-09-28T07:21:01.555Z,991.92
2022-09-28T07:22:05.017Z,991.98
2022-09-28T07:23:14.619Z,992.20
2022-09-28T07:24:01.557Z,992.08
2022-09-28T07:25:01.561Z,992.22
2022-09-28T07:26:01.651Z,992.23
2022-09-28T07:27:01.551Z,992.21
2022-09-28T07:28:01.551Z,992.25
2022-09-28T07:29:01.555Z,992.17
2022-09-28T07:30:01.580Z,992.20
2022-09-28T07:31:01.616Z,992.15
2022-09-28T07:32:01.546Z,992.14
2022-09-28T07:33:01.549Z,992.09
2022-09-28T07:34:01.547Z,992.06
2022-09-28T07:35:01.559Z,992.03
2022-09-28T07:36:01.544Z,992.00
2022-09-28T07:37:01.544Z,991.93
2022-09-28T07:38:01.570Z,991.92
2022-09-28T07:39:01.545Z,991.94
2022-09-28T07:40:01.547Z,991.90
2022-09-28T07:41:01.653Z,991.92
2022-09-28T07:42:03.043Z,991.94
2022-09-28T07:43:01.544Z,991.93
2022-09-28T07:44:01.549Z,991.95
2022-09-28T07:45:01.541Z,991.97
2022-09-28T07:46:01.656Z,992.10
2022-09-28T07:47:01.544Z,992.29
2022-09-28T07:48:01.668Z,992.09
2022-09-28T07:49:01.539Z,992.09
2022-09-28T07:50:01.559Z,992.02
2022-09-28T07:51:01.540Z,992.05
2022-09-28T07:52:01.541Z,992.05
2022-09-28T07:53:01.537Z,992.02
2022-09-28T07:54:01.563Z,992.10
2022-09-28T07:55:06.686Z,992.09
2022-09-28T07:56:01.541Z,992.01
2022-09-28T07:57:01.541Z,992.00
2022-09-28T07:58:01.539Z,992.01
2022-09-28T07:59:01.540Z,992.00
2022-09-28T08:00:01.538Z,992.06
2022-09-28T08:01:01.617Z,992.16
2022-09-28T08:02:01.605Z,992.35
2022-09-28T08:03:01.539Z,992.27
2022-09-28T08:04:01.540Z,992.34
2022-09-28T08:05:01.549Z,992.30
2022-09-28T08:06:01.539Z,992.26
2022-09-28T08:07:01.539Z,992.35
2022-09-28T08:08:01.543Z,992.30
2022-09-28T08:09:01.548Z,992.31
2022-09-28T08:10:01.556Z,992.21
2022-09-28T08:11:01.545Z,992.21
2022-09-28T08:12:01.546Z,992.25
2022-09-28T08:13:02.872Z,992.40
2022-09-28T08:14:01.540Z,992.46
2022-09-28T08:15:01.541Z,992.42
2022-09-28T08:16:01.554Z,992.61
2022-09-28T08:17:01.561Z,992.57
2022-09-28T08:18:02.921Z,992.64
2022-09-28T08:19:01.540Z,992.72
2022-09-28T08:20:01.553Z,992.43
2022-09-28T08:21:01.543Z,992.63
2022-09-28T08:22:01.538Z,993.00
2022-09-28T08:23:01.573Z,992.28
2022-09-28T08:24:01.540Z,992.59
2022-09-28T08:25:01.541Z,993.23
2022-09-28T08:26:01.567Z,992.27
2022-09-28T08:27:01.547Z,992.22
2022-09-28T08:28:01.555Z,992.30
2022-09-28T08:29:01.550Z,993.32
2022-09-28T08:30:01.547Z,992.43
2022-09-28T08:31:01.665Z,992.49
2022-09-28T08:32:02.027Z,992.36
2022-09-28T08:33:01.553Z,992.26
2022-09-28T08:34:01.552Z,992.14
2022-09-28T08:35:01.552Z,992.10
2022-09-28T08:36:01.552Z,992.25
2022-09-28T08:37:01.557Z,992.18
2022-09-28T08:38:01.548Z,992.15
2022-09-28T08:39:01.551Z,992.05
2022-09-28T08:40:01.559Z,992.02
2022-09-28T08:41:01.610Z,992.20
2022-09-28T08:42:01.574Z,992.10
2022-09-28T08:43:01.555Z,992.14
2022-09-28T08:44:01.577Z,992.16
2022-09-28T08:45:01.561Z,992.13
2022-09-28T08:46:01.669Z,992.11
2022-09-28T08:47:01.567Z,992.04
2022-09-28T08:48:01.554Z,992.11
2022-09-28T08:49:20.980Z,992.10
2022-09-28T08:50:01.596Z,992.08
2022-09-28T08:51:01.563Z,992.10
2022-09-28T08:52:01.561Z,992.05
2022-09-28T08:53:01.564Z,992.14
2022-09-28T08:54:01.566Z,992.15
2022-09-28T08:55:01.565Z,992.14
2022-09-28T08:56:01.562Z,992.13
2022-09-28T08:57:01.571Z,992.12
2022-09-28T08:58:01.580Z,992.13
2022-09-28T08:59:01.563Z,992.20
2022-09-28T09:00:01.567Z,992.27
2022-09-28T09:01:01.608Z,992.43
2022-09-28T09:02:02.144Z,994.21
2022-09-28T09:03:01.563Z,993.31
2022-09-28T09:04:01.568Z,992.45
2022-09-28T09:05:01.562Z,992.32
2022-09-28T09:06:01.563Z,992.21
2022-09-28T09:07:01.561Z,992.20
2022-09-28T09:08:01.563Z,992.30
2022-09-28T09:09:01.566Z,992.30
2022-09-28T09:10:01.567Z,992.29
2022-09-28T09:11:01.565Z,992.39
2022-09-28T09:12:01.568Z,992.37
2022-09-28T09:13:01.576Z,992.35
2022-09-28T09:14:01.587Z,992.27
2022-09-28T09:15:01.565Z,992.27
2022-09-28T09:16:01.568Z,992.30
2022-09-28T09:17:01.621Z,992.27
2022-09-28T09:18:01.569Z,992.25
2022-09-28T09:19:01.575Z,992.22
2022-09-28T09:20:01.603Z,992.22
2022-09-28T09:21:01.571Z,992.26
2022-09-28T09:22:01.568Z,992.31
2022-09-28T09:23:01.571Z,992.30
2022-09-28T09:24:01.575Z,992.23
2022-09-28T09:25:01.569Z,992.25
2022-09-28T09:26:01.566Z,992.25
2022-09-28T09:27:01.577Z,992.20
2022-09-28T09:28:01.580Z,992.28
2022-09-28T09:29:01.572Z,992.25
2022-09-28T09:30:01.601Z,992.23
2022-09-28T09:31:01.608Z,992.25
2022-09-28T09:32:01.571Z,992.23
2022-09-28T09:33:01.572Z,992.24
2022-09-28T09:34:01.579Z,992.22
2022-09-28T09:35:01.576Z,992.22
2022-09-28T09:36:01.571Z,992.22
2022-09-28T09:37:01.575Z,992.22
2022-09-28T09:38:01.574Z,992.24
2022-09-28T09:39:01.576Z,992.20
2022-09-28T09:40:01.575Z,992.23
2022-09-28T09:41:01.730Z,992.25
2022-09-28T09:42:01.578Z,992.30
2022-09-28T09:43:01.578Z,992.26
2022-09-28T09:44:01.577Z,992.21
2022-09-28T09:45:01.593Z,992.24
2022-09-28T09:46:02.039Z,992.24
2022-09-28T09:47:01.572Z,992.23
2022-09-28T09:48:01.575Z,992.27
2022-09-28T09:49:01.579Z,992.30
2022-09-28T09:50:05.311Z,992.35
2022-09-28T09:51:01.577Z,992.38
2022-09-28T09:52:01.574Z,992.44
2022-09-28T09:53:01.585Z,992.51
2022-09-28T09:54:01.574Z,992.57
2022-09-28T09:55:01.583Z,992.79
2022-09-28T09:56:01.586Z,992.85
2022-09-28T09:57:01.577Z,992.88
2022-09-28T09:58:01.574Z,992.92
2022-09-28T09:59:01.579Z,992.90
2022-09-28T10:00:01.578Z,992.90
2022-09-28T10:01:01.671Z,993.11
2022-09-28T10:02:01.654Z,992.97
2022-09-28T10:03:01.650Z,992.71
2022-09-28T10:04:01.582Z,992.32
2022-09-28T10:05:01.580Z,992.51
2022-09-28T10:06:01.580Z,992.53
2022-09-28T10:07:01.581Z,992.60
2022-09-28T10:08:01.585Z,992.61
2022-09-28T10:09:01.586Z,992.54
2022-09-28T10:10:01.585Z,992.59
2022-09-28T10:11:01.583Z,992.69
2022-09-28T10:12:01.593Z,992.88
2022-09-28T10:13:01.586Z,992.92
2022-09-28T10:14:01.588Z,992.33
2022-09-28T10:15:01.591Z,992.25
2022-09-28T10:16:01.593Z,992.29
2022-09-28T10:17:01.628Z,992.33
2022-09-28T10:18:01.622Z,993.39
2022-09-28T10:19:01.591Z,992.54
2022-09-28T10:20:01.595Z,993.30
2022-09-28T10:21:01.596Z,993.46
2022-09-28T10:22:01.604Z,993.71
2022-09-28T10:23:01.601Z,992.67
2022-09-28T10:24:01.604Z,992.98
2022-09-28T10:25:01.601Z,993.40
2022-09-28T10:26:01.605Z,993.80
2022-09-28T10:27:01.611Z,992.39
2022-09-28T10:28:01.607Z,992.27
2022-09-28T10:29:01.617Z,992.12
2022-09-28T10:30:01.615Z,992.16
2022-09-28T10:31:01.773Z,992.12
2022-09-28T10:32:01.622Z,992.11
2022-09-28T10:33:01.618Z,992.06
2022-09-28T10:34:01.645Z,991.97
2022-09-28T10:35:01.632Z,991.94
2022-09-28T10:36:01.631Z,991.93
2022-09-28T10:37:01.628Z,991.92
2022-09-28T10:38:01.634Z,991.94
2022-09-28T10:39:01.639Z,991.92
2022-09-28T10:40:01.632Z,991.88
2022-09-28T10:41:01.727Z,991.90
2022-09-28T10:42:01.636Z,991.93
2022-09-28T10:43:01.637Z,991.93
2022-09-28T10:44:01.642Z,991.94
2022-09-28T10:45:01.646Z,991.94
2022-09-28T10:46:01.770Z,991.89
2022-09-28T10:47:01.647Z,991.86
2022-09-28T10:48:01.649Z,991.88
2022-09-28T10:49:01.647Z,991.86
2022-09-28T10:50:01.672Z,991.87
2022-09-28T10:51:01.648Z,991.90
2022-09-28T10:52:01.665Z,991.86
2022-09-28T10:53:01.656Z,991.86
2022-09-28T10:54:01.662Z,991.91
2022-09-28T10:55:01.659Z,991.88
2022-09-28T10:56:01.656Z,991.93
2022-09-28T10:57:01.654Z,991.93
2022-09-28T10:58:01.660Z,991.94
2022-09-28T10:59:01.662Z,991.94
2022-09-28T11:00:01.660Z,991.93
2022-09-28T11:01:01.807Z,991.98
2022-09-28T11:02:01.751Z,992.02
2022-09-28T11:03:01.727Z,992.01
2022-09-28T11:04:01.666Z,992.00
2022-09-28T11:05:01.663Z,992.03
2022-09-28T11:06:01.684Z,992.00
2022-09-28T11:07:01.687Z,992.04
2022-09-28T11:08:01.666Z,992.04
2022-09-28T11:09:01.668Z,992.07
2022-09-28T11:10:01.668Z,992.04
2022-09-28T11:11:01.675Z,992.02
2022-09-28T11:12:01.670Z,992.04
2022-09-28T11:13:01.669Z,992.14
2022-09-28T11:14:01.674Z,992.09
2022-09-28T11:15:01.673Z,992.07
2022-09-28T11:16:01.670Z,992.08
2022-09-28T11:17:01.787Z,992.05
2022-09-28T11:18:01.671Z,992.07
2022-09-28T11:19:01.673Z,992.03
2022-09-28T11:20:01.671Z,992.08
2022-09-28T11:21:01.673Z,992.00
2022-09-28T11:22:01.691Z,991.98
2022-09-28T11:23:01.674Z,992.01
2022-09-28T11:24:01.677Z,991.98
2022-09-28T11:25:01.675Z,991.97
2022-09-28T11:26:01.678Z,991.94
2022-09-28T11:27:01.670Z,991.97
2022-09-28T11:28:01.675Z,991.94
2022-09-28T11:29:01.670Z,991.98
2022-09-28T11:30:01.674Z,992.01
2022-09-28T11:31:01.757Z,991.95
2022-09-28T11:32:01.673Z,991.96
2022-09-28T11:33:01.672Z,991.92
2022-09-28T11:34:01.677Z,991.93
2022-09-28T11:35:01.669Z,991.95
2022-09-28T11:36:01.674Z,991.94
2022-09-28T11:37:02.062Z,991.96
2022-09-28T11:38:01.695Z,991.94
2022-09-28T11:39:01.682Z,991.98
2022-09-28T11:40:01.681Z,991.97
2022-09-28T11:41:01.751Z,991.94
2022-09-28T11:42:01.675Z,991.96
2022-09-28T11:43:01.753Z,992.01
2022-09-28T11:44:01.676Z,991.98
2022-09-28T11:45:01.673Z,991.97
2022-09-28T11:46:01.734Z,991.99
2022-09-28T11:47:01.678Z,992.02
2022-09-28T11:48:01.675Z,992.04
2022-09-28T11:49:01.670Z,992.08
2022-09-28T11:50:01.673Z,992.05
2022-09-28T11:51:01.673Z,992.02
2022-09-28T11:52:01.672Z,992.07
2022-09-28T11:53:01.720Z,992.06
2022-09-28T11:54:01.691Z,992.20
2022-09-28T11:55:01.687Z,992.08
2022-09-28T11:56:05.310Z,992.11
2022-09-28T11:57:01.672Z,992.16
2022-09-28T11:58:01.677Z,992.17
2022-09-28T11:59:01.667Z,992.16
2022-09-28T12:00:01.680Z,992.18
2022-09-28T12:01:01.672Z,992.16
2022-09-28T12:02:01.756Z,992.14
2022-09-28T12:03:01.782Z,992.16
2022-09-28T12:04:01.673Z,992.17
2022-09-28T12:05:01.667Z,992.18
2022-09-28T12:06:01.672Z,992.22
2022-09-28T12:07:01.673Z,992.15
2022-09-28T12:08:01.672Z,992.21
2022-09-28T12:09:01.667Z,992.18
2022-09-28T12:10:01.700Z,992.21
2022-09-28T12:11:01.668Z,992.20
2022-09-28T12:12:01.666Z,992.27
2022-09-28T12:13:01.676Z,992.34
2022-09-28T12:14:01.669Z,992.22
2022-09-28T12:15:01.670Z,992.19
2022-09-28T12:17:06.210Z,992.18
2022-09-28T12:18:01.767Z,992.19
2022-09-28T12:19:01.789Z,992.16
2022-09-28T12:20:01.678Z,992.20
2022-09-28T12:21:05.075Z,992.17
2022-09-28T12:22:01.670Z,992.18
2022-09-28T12:23:01.665Z,992.15
2022-09-28T12:24:01.666Z,992.15
2022-09-28T12:25:01.664Z,992.15
2022-09-28T12:26:01.684Z,992.17
2022-09-28T12:27:01.665Z,992.21
2022-09-28T12:28:01.665Z,992.21
2022-09-28T12:29:01.663Z,992.21
2022-09-28T12:30:01.667Z,992.20
2022-09-28T12:31:01.688Z,992.19
2022-09-28T12:32:01.664Z,992.20